Time;durP1;ratioP1;P1;durP2;ratioP2;P2;SDS_P1;SDS_P2;PMS_P1;PMS_P2;Temp;Humidity;BMP_temperature;BMP_pressure;BME280_temperature;BME280_humidity;BME280_pressure;Samples;Min_cycle;Max_cycle;Signal;HPM_P1;HPM_P2
2021/06/03 00:02:12;;;;;;;4.97;4.65;;;16.10;97.20;;;17.13;58.88;98157.59;5224785;28;20587;-61
2021/06/03 00:04:46;;;;;;;4.60;4.30;;;16.00;97.10;;;17.06;59.38;98159.97;5225458;28;20193;-61
2021/06/03 00:07:21;;;;;;;5.10;4.60;;;16.00;98.30;;;17.06;59.90;98152.22;5224051;28;20204;-61
2021/06/03 00:09:53;;;;;;;5.60;5.20;;;16.00;97.80;;;16.97;59.77;98158.72;5223332;28;20199;-61
2021/06/03 00:12:26;;;;;;;5.75;5.25;;;16.00;97.70;;;16.95;59.29;98162.97;5222971;28;20216;-60
2021/06/03 00:14:59;;;;;;;6.10;5.60;;;15.80;97.70;;;16.88;59.49;98157.59;5219782;28;20197;-61
2021/06/03 00:17:31;;;;;;;5.50;5.10;;;15.70;97.80;;;16.82;60.54;98156.47;5226074;28;20199;-61
2021/06/03 00:20:09;;;;;;;5.82;5.32;;;15.70;98.80;;;16.77;60.71;98160.56;5216464;28;20222;-60
2021/06/03 00:22:42;;;;;;;5.85;5.35;;;15.70;98.40;;;16.73;60.24;98163.84;5210010;28;20535;-61
2021/06/03 00:25:15;;;;;;;6.40;5.90;;;15.60;98.90;;;16.66;60.35;98161.03;5223363;28;20194;-61
2021/06/03 00:27:48;;;;;;;5.32;4.82;;;15.50;98.80;;;16.59;60.76;98164.19;5225244;28;20213;-61
2021/06/03 00:30:22;;;;;;;5.70;5.30;;;15.40;99.20;;;16.40;61.82;98157.44;5223936;28;20652;-61
2021/06/03 00:32:55;;;;;;;5.25;4.85;;;15.40;99.90;;;16.34;62.18;98161.47;5217434;28;20675;-61
2021/06/03 00:35:29;;;;;;;5.65;5.25;;;15.30;99.80;;;16.34;61.94;98164.06;5224172;28;20193;-60
2021/06/03 00:38:01;;;;;;;6.43;5.43;;;15.20;99.90;;;16.31;62.00;98166.50;5225071;28;20221;-61
2021/06/03 00:40:34;;;;;;;6.00;5.50;;;15.20;99.90;;;16.26;62.57;98168.94;5221348;28;20455;-61
2021/06/03 00:43:08;;;;;;;5.78;5.28;;;15.20;99.90;;;16.21;62.42;98173.91;5229228;28;20193;-61
2021/06/03 00:45:41;;;;;;;5.55;5.15;;;15.10;99.90;;;16.19;63.12;98172.94;5228669;28;20201;-61
2021/06/03 00:48:14;;;;;;;6.03;5.60;;;15.10;99.90;;;16.15;63.41;98170.19;5229166;28;20309;-61
2021/06/03 00:50:51;;;;;;;6.30;5.80;;;15.10;99.90;;;16.10;63.18;98182.91;5223977;28;20197;-60
2021/06/03 00:53:24;;;;;;;8.05;7.43;;;15.00;99.90;;;16.03;62.95;98178.31;5229785;28;20203;-61
2021/06/03 00:55:59;;;;;;;7.88;7.20;;;14.90;99.90;;;15.92;62.66;98177.00;5220308;28;20193;-61
2021/06/03 00:58:34;;;;;;;6.70;6.20;;;14.90;99.90;;;15.89;63.55;98176.88;5223425;28;20220;-61
2021/06/03 01:01:06;;;;;;;6.63;6.10;;;14.90;99.90;;;15.99;65.31;98179.00;5228067;28;20217;-61
2021/06/03 01:03:39;;;;;;;6.05;5.55;;;15.00;99.90;;;15.93;64.85;98187.38;5220414;28;20197;-61
2021/06/03 01:06:13;;;;;;;6.13;5.63;;;14.90;99.90;;;15.87;64.91;98183.66;5229001;28;20247;-61
2021/06/03 01:08:50;;;;;;;6.70;6.10;;;14.80;99.90;;;15.81;64.51;98184.28;5226709;28;20217;-59
2021/06/03 01:11:30;;;;;;;6.18;5.68;;;14.80;99.90;;;15.77;65.01;98185.88;5220125;28;20193;-61
2021/06/03 01:14:10;;;;;;;5.95;5.55;;;14.80;99.90;;;15.79;65.40;98195.34;5219842;28;20227;-61
2021/06/03 01:16:43;;;;;;;6.20;5.70;;;14.70;99.90;;;15.75;65.22;98192.63;5213675;28;20654;-62
2021/06/03 01:19:22;;;;;;;6.10;5.70;;;14.70;99.90;;;15.65;65.26;98203.38;5227081;28;20217;-59
2021/06/03 01:22:05;;;;;;;8.45;7.95;;;14.60;99.90;;;15.59;65.18;98197.91;5220604;28;20217;-60
2021/06/03 01:24:41;;;;;;;7.88;7.38;;;14.50;99.90;;;15.46;64.32;98190.50;5228441;28;20194;-61
2021/06/03 01:27:19;;;;;;;6.70;6.13;;;14.40;99.90;;;15.42;64.68;98188.59;5220069;28;20254;-61
2021/06/03 01:29:56;;;;;;;5.57;5.18;;;14.40;99.90;;;15.41;65.01;98192.88;5228046;28;20193;-61
2021/06/03 01:32:31;;;;;;;5.55;5.05;;;14.40;99.90;;;15.45;65.20;98191.28;5215006;28;20201;-61
2021/06/03 01:35:07;;;;;;;5.80;5.38;;;14.40;99.90;;;15.41;65.90;98197.13;5224517;28;20189;-60
2021/06/03 01:37:41;;;;;;;6.13;5.63;;;14.40;99.90;;;15.32;66.36;98188.19;5227667;28;20290;-60
2021/06/03 01:40:18;;;;;;;5.38;4.97;;;14.30;99.90;;;15.35;66.51;98191.72;5227586;28;20216;-60
2021/06/03 01:42:51;;;;;;;5.70;5.30;;;14.30;99.90;;;15.32;66.07;98195.03;5225288;28;20188;-61
2021/06/03 01:45:24;;;;;;;5.40;5.00;;;14.30;99.90;;;15.28;65.98;98196.63;5220010;28;20204;-61
2021/06/03 01:47:57;;;;;;;5.55;5.13;;;14.30;99.90;;;15.32;66.22;98198.50;5219829;28;20213;-61
2021/06/03 01:50:30;;;;;;;6.18;5.63;;;14.40;99.90;;;15.37;66.09;98203.88;5218699;28;20197;-60
2021/06/03 01:53:03;;;;;;;7.22;6.72;;;14.30;99.90;;;15.29;65.87;98198.38;5227277;28;20194;-60
2021/06/03 01:55:38;;;;;;;8.02;7.43;;;14.20;99.90;;;15.17;66.15;98202.97;5219562;28;20204;-61
2021/06/03 01:58:12;;;;;;;8.02;7.32;;;14.10;99.90;;;15.03;66.18;98206.63;5223797;28;20247;-60
2021/06/03 02:00:45;;;;;;;7.22;6.72;;;13.90;99.90;;;15.05;67.53;98213.63;5218812;28;20685;-61
2021/06/03 02:03:21;;;;;;;6.10;5.53;;;14.00;99.90;;;15.06;67.66;98214.50;5219601;28;20206;-61
2021/06/03 02:05:55;;;;;;;5.63;5.32;;;14.00;99.90;;;15.01;66.73;98211.69;5226995;28;20653;-59
2021/06/03 02:08:27;;;;;;;5.75;5.10;;;14.10;99.90;;;15.04;65.74;98211.84;5218254;28;20220;-60
2021/06/03 02:11:01;;;;;;;5.50;5.20;;;14.10;99.90;;;15.02;65.99;98212.56;5227345;28;20203;-58
2021/06/03 02:13:38;;;;;;;6.22;5.72;;;14.10;99.90;;;15.00;66.42;98206.50;5221081;28;20564;-61
2021/06/03 02:16:16;;;;;;;5.85;5.35;;;14.10;99.90;;;15.03;65.81;98211.78;5219267;28;20193;-59
2021/06/03 02:18:54;;;;;;;5.93;5.35;;;14.00;99.90;;;15.01;65.97;98213.41;5216033;28;20229;-59
2021/06/03 02:21:27;;;;;;;5.30;4.82;;;14.00;99.90;;;14.90;65.08;98218.03;5225754;28;20220;-61
2021/06/03 02:24:02;;;;;;;5.88;5.38;;;13.90;99.90;;;14.95;66.47;98226.00;5224813;28;20193;-61
2021/06/03 02:26:39;;;;;;;5.18;4.78;;;14.00;99.90;;;14.95;67.22;98223.41;5225111;28;20220;-61
2021/06/03 02:29:13;;;;;;;5.43;4.93;;;14.00;99.90;;;14.94;67.25;98227.69;5225250;28;20712;-60
2021/06/03 02:31:47;;;;;;;5.82;5.38;;;14.10;99.90;;;15.03;67.63;98228.09;5225932;28;20216;-60
2021/06/03 02:34:20;;;;;;;5.68;5.28;;;14.10;99.90;;;15.05;66.55;98230.72;5222390;28;20215;-60
2021/06/03 02:36:52;;;;;;;5.55;5.15;;;14.10;99.90;;;14.98;66.81;98227.00;5226014;28;20197;-59
2021/06/03 02:39:25;;;;;;;6.10;5.60;;;14.00;99.90;;;14.96;67.09;98228.63;5218440;28;20227;-60
2021/06/03 02:41:59;;;;;;;5.72;5.32;;;13.90;99.90;;;14.98;67.95;98226.13;5225958;28;20217;-61
2021/06/03 02:44:33;;;;;;;6.20;5.65;;;14.00;99.90;;;14.97;66.81;98217.53;5216933;28;20204;-61
2021/06/03 02:47:08;;;;;;;6.22;5.68;;;13.90;99.90;;;14.99;66.34;98226.19;5215173;28;20670;-60
2021/06/03 02:49:40;;;;;;;5.80;5.40;;;14.00;99.90;;;14.87;65.80;98229.09;5225004;28;20590;-60
2021/06/03 02:52:13;;;;;;;5.13;4.82;;;13.80;99.90;;;14.75;65.57;98231.09;5225598;28;20204;-61
2021/06/03 02:54:46;;;;;;;5.43;5.13;;;13.80;99.90;;;14.79;66.87;98230.44;5218394;28;20216;-62
2021/06/03 02:57:21;;;;;;;5.78;5.28;;;13.80;99.90;;;14.76;66.30;98230.28;5217994;28;20193;-61
2021/06/03 02:59:54;;;;;;;5.32;5.03;;;13.90;99.90;;;14.79;66.63;98235.59;5209895;28;20203;-61
2021/06/03 03:02:26;;;;;;;5.20;4.90;;;13.90;99.90;;;14.85;65.95;98241.03;5216354;28;20227;-61
2021/06/03 03:04:59;;;;;;;5.68;5.28;;;13.90;99.90;;;14.88;66.19;98235.13;5218635;28;20204;-61
2021/06/03 03:07:32;;;;;;;5.75;5.25;;;14.00;99.90;;;14.87;67.33;98236.81;5218009;28;20202;-61
2021/06/03 03:10:10;;;;;;;5.18;4.78;;;14.00;99.90;;;14.84;66.53;98235.78;5210370;28;20582;-61
2021/06/03 03:12:44;;;;;;;5.47;5.07;;;14.00;99.90;;;14.84;66.20;98239.25;5220515;28;20204;-61
2021/06/03 03:15:19;;;;;;;5.50;5.05;;;14.00;99.90;;;14.87;65.95;98241.94;5218841;28;20561;-61
2021/06/03 03:17:52;;;;;;;5.75;5.25;;;14.00;99.90;;;14.87;65.90;98241.94;5216668;28;20598;-60
2021/06/03 03:20:27;;;;;;;6.00;5.50;;;14.00;99.90;;;14.87;66.88;98239.38;5215067;28;20229;-60
2021/06/03 03:23:00;;;;;;;5.90;5.45;;;14.00;99.90;;;14.93;66.91;98245.63;5224263;28;20215;-61
2021/06/03 03:25:34;;;;;;;5.68;5.28;;;14.10;99.90;;;14.94;66.94;98238.00;5217803;28;20213;-60
2021/06/03 03:28:09;;;;;;;6.20;5.78;;;14.10;99.90;;;14.92;66.10;98241.31;5218186;28;20212;-61
2021/06/03 03:30:43;;;;;;;6.00;5.53;;;14.00;99.90;;;14.93;66.08;98248.19;5217357;28;20200;-61
2021/06/03 03:33:17;;;;;;;6.25;5.75;;;14.00;99.90;;;14.91;66.30;98248.16;5224654;28;20231;-61
2021/06/03 03:35:49;;;;;;;7.13;6.60;;;14.00;99.90;;;14.87;66.42;98254.81;5218572;28;20196;-59
2021/06/03 03:38:23;;;;;;;5.75;5.35;;;14.00;99.90;;;14.94;66.75;98260.28;5218135;28;20221;-61
2021/06/03 03:40:56;;;;;;;6.35;5.85;;;14.00;99.90;;;14.93;67.31;98258.50;5225683;28;20227;-60
2021/06/03 03:43:30;;;;;;;6.00;5.60;;;13.90;99.90;;;15.00;66.35;98261.44;5224876;28;20699;-61
2021/06/03 03:46:03;;;;;;;6.70;6.10;;;14.10;99.90;;;15.09;66.98;98267.00;5226119;28;20201;-61
2021/06/03 03:48:35;;;;;;;6.10;5.70;;;14.20;99.90;;;15.11;66.66;98267.09;5214204;28;20213;-61
2021/06/03 03:51:12;;;;;;;6.28;5.78;;;14.20;99.90;;;15.21;65.99;98276.97;5224993;28;20205;-61
2021/06/03 03:53:45;;;;;;;6.10;5.70;;;14.20;99.90;;;15.23;65.04;98271.91;5225049;28;20581;-61
2021/06/03 03:56:18;;;;;;;6.35;5.95;;;14.20;99.90;;;15.10;65.98;98278.16;5225815;28;20653;-60
2021/06/03 03:58:51;;;;;;;7.30;6.80;;;14.10;99.90;;;15.18;66.40;98276.84;5216566;28;20213;-61
2021/06/03 04:01:24;;;;;;;7.05;6.55;;;14.20;99.90;;;15.24;65.58;98276.22;5223082;28;20213;-59
2021/06/03 04:03:57;;;;;;;7.68;7.18;;;14.20;99.90;;;15.28;67.39;98280.69;5209613;28;20336;-58
2021/06/03 04:06:30;;;;;;;8.00;7.43;;;14.30;99.90;;;15.32;65.97;98275.75;5224087;28;20208;-61
2021/06/03 04:09:03;;;;;;;9.65;8.93;;;14.40;99.90;;;15.47;64.90;98279.84;5209398;28;20216;-61
2021/06/03 04:11:35;;;;;;;10.45;9.48;;;14.40;99.90;;;15.56;64.42;98275.09;5224330;28;20193;-61
2021/06/03 04:14:09;;;;;;;8.82;8.23;;;14.50;99.90;;;15.52;64.53;98278.34;5217561;28;20568;-60
2021/06/03 04:16:42;;;;;;;9.23;8.52;;;14.40;99.90;;;15.42;66.21;98273.59;5221535;28;20198;-59
2021/06/03 04:19:14;;;;;;;8.45;7.75;;;14.50;99.90;;;15.41;65.46;98280.44;5225544;28;20304;-61
2021/06/03 04:21:47;;;;;;;8.20;7.50;;;14.40;99.90;;;15.51;66.18;98274.91;5224694;28;20220;-61
2021/06/03 04:24:20;;;;;;;7.80;6.75;;;14.50;99.90;;;15.65;65.56;98282.34;5213542;28;20193;-61
2021/06/03 04:26:53;;;;;;;7.03;6.43;;;14.60;99.90;;;15.72;65.29;98282.72;5215762;28;20205;-61
2021/06/03 04:29:26;;;;;;;6.85;6.43;;;14.70;99.90;;;15.81;64.99;98284.81;5225978;28;20213;-61
2021/06/03 04:31:59;;;;;;;6.35;5.85;;;14.80;99.90;;;15.91;64.96;98284.41;5216123;28;20202;-61
2021/06/03 04:34:32;;;;;;;7.35;6.80;;;14.90;99.90;;;16.11;64.31;98287.84;5223120;28;20650;-61
2021/06/03 04:37:04;;;;;;;6.63;6.13;;;15.00;99.90;;;16.18;63.85;98295.00;5225383;28;20275;-61
2021/06/03 04:39:38;;;;;;;6.68;6.13;;;15.10;99.90;;;16.34;64.59;98295.63;5223569;28;20329;-61
2021/06/03 04:42:11;;;;;;;6.97;6.38;;;15.30;99.90;;;16.54;63.88;98284.44;5224859;28;20221;-61
2021/06/03 04:44:45;;;;;;;6.82;6.28;;;15.50;99.90;;;16.77;63.00;98293.13;5217337;28;20193;-61
2021/06/03 04:47:18;;;;;;;5.97;5.47;;;15.70;99.90;;;17.01;61.92;98282.88;5216069;28;20205;-60
2021/06/03 04:49:50;;;;;;;6.65;6.05;;;15.90;99.90;;;17.26;60.44;98284.69;5213709;28;20201;-62
2021/06/03 04:52:27;;;;;;;6.65;6.15;;;16.10;99.90;;;17.48;60.18;98294.13;5220704;28;20237;-61
2021/06/03 04:55:03;;;;;;;6.95;6.25;;;16.40;99.90;;;17.81;58.46;98301.38;5218215;28;20201;-62
2021/06/03 04:57:37;;;;;;;6.65;6.13;;;16.70;99.90;;;18.26;57.57;98301.22;5223245;28;20251;-61
2021/06/03 05:00:14;;;;;;;6.63;6.13;;;17.10;99.40;;;18.66;55.97;98294.75;5218484;28;20201;-62
2021/06/03 05:02:48;;;;;;;7.35;6.57;;;17.50;98.80;;;19.12;55.59;98298.81;5216255;28;20686;-62
2021/06/03 05:05:21;;;;;;;6.47;5.82;;;17.90;98.10;;;19.73;53.90;98300.63;5214672;28;20610;-61
2021/06/03 05:07:54;;;;;;;6.78;6.25;;;18.40;97.30;;;20.16;52.31;98306.97;5221888;28;20647;-62
2021/06/03 05:10:29;;;;;;;6.68;5.90;;;18.70;96.50;;;20.36;51.95;98296.25;5217541;28;20208;-62
2021/06/03 05:13:02;;;;;;;6.10;5.60;;;18.90;96.40;;;21.05;50.56;98296.19;5215425;28;20189;-62
2021/06/03 05:15:36;;;;;;;5.50;5.10;;;19.50;95.60;;;21.54;49.05;98286.88;5222780;28;20204;-61
2021/06/03 05:18:12;;;;;;;6.38;5.78;;;19.90;94.80;;;22.01;47.79;98297.38;5207535;28;20236;-62
2021/06/03 05:20:44;;;;;;;7.43;5.40;;;20.10;94.20;;;22.24;46.84;98294.34;5219094;28;20497;-62
2021/06/03 05:23:17;;;;;;;5.90;5.40;;;20.40;93.70;;;22.52;46.24;98295.69;5220007;28;20218;-62
2021/06/03 05:25:50;;;;;;;5.97;5.45;;;20.70;92.90;;;22.66;45.29;98298.50;5215520;28;20197;-62
2021/06/03 05:28:22;;;;;;;6.38;5.75;;;20.70;92.40;;;22.86;45.77;98302.34;5217492;28;20215;-62
2021/06/03 05:30:56;;;;;;;5.85;5.38;;;20.90;92.60;;;23.04;44.50;98299.16;5226152;28;20189;-62
2021/06/03 05:33:29;;;;;;;6.22;5.72;;;21.20;91.60;;;22.98;44.93;98311.19;5222769;28;20198;-62
2021/06/03 05:36:03;;;;;;;6.10;5.70;;;21.10;91.80;;;23.04;44.76;98306.09;5218805;28;20768;-62
2021/06/03 05:38:35;;;;;;;5.72;5.32;;;21.00;91.90;;;22.97;44.87;98312.94;5222772;28;20224;-62
2021/06/03 05:41:08;;;;;;;5.90;5.50;;;20.80;92.30;;;22.75;45.48;98314.31;5221440;28;20193;-62
2021/06/03 05:43:42;;;;;;;5.50;5.10;;;20.60;92.40;;;22.61;45.73;98321.03;5226499;28;20193;-62
2021/06/03 05:46:16;;;;;;;5.90;5.50;;;20.60;92.40;;;22.42;46.24;98320.69;5217664;28;20569;-62
2021/06/03 05:48:49;;;;;;;5.63;5.13;;;20.30;93.20;;;22.26;46.87;98329.09;5217754;28;20708;-62
2021/06/03 05:51:22;;;;;;;6.10;5.57;;;20.30;93.10;;;22.15;47.08;98330.56;5219296;28;20201;-62
2021/06/03 05:53:54;;;;;;;5.90;5.43;;;20.20;93.20;;;22.15;46.81;98331.47;5218098;28;20201;-62
2021/06/03 05:56:27;;;;;;;6.10;5.70;;;20.20;93.40;;;22.04;47.47;98336.47;5217015;28;20225;-62
2021/06/03 05:59:00;;;;;;;5.78;5.28;;;20.10;93.60;;;22.08;48.07;98333.94;5226618;28;20217;-62
2021/06/03 06:01:35;;;;;;;6.03;5.53;;;20.20;93.80;;;22.21;47.36;98339.44;5216298;28;20214;-62
2021/06/03 06:04:19;;;;;;;5.90;5.40;;;20.40;93.30;;;22.31;47.07;98343.06;5220131;28;20692;-62
2021/06/03 06:06:51;;;;;;;5.68;5.28;;;20.50;93.20;;;22.18;47.87;98349.78;5224155;28;20193;-62
2021/06/03 06:09:24;;;;;;;5.68;5.25;;;20.40;93.30;;;22.17;48.18;98344.50;5226063;28;20897;-62
2021/06/03 06:11:57;;;;;;;6.32;5.90;;;20.40;93.60;;;22.43;47.86;98343.31;5224618;28;20200;-62
2021/06/03 06:14:29;;;;;;;5.97;5.57;;;20.70;93.40;;;22.61;47.70;98347.09;5227273;28;20197;-62
2021/06/03 06:17:04;;;;;;;5.88;5.38;;;20.80;93.40;;;22.65;47.74;98349.75;5224961;28;20200;-62
2021/06/03 06:19:37;;;;;;;5.22;4.85;;;20.90;93.50;;;22.61;48.25;98349.69;5225311;28;20221;-62
2021/06/03 06:22:10;;;;;;;6.50;5.80;;;20.90;93.60;;;22.54;48.55;98363.47;5220176;28;20217;-62
2021/06/03 06:24:45;;;;;;;5.43;4.93;;;20.90;93.90;;;22.55;49.07;98359.97;5226611;28;20204;-62
2021/06/03 06:27:18;;;;;;;5.25;4.75;;;20.80;94.60;;;22.59;48.90;98364.41;5218802;28;20200;-62
2021/06/03 06:29:50;;;;;;;5.50;5.00;;;20.70;94.50;;;22.66;48.35;98359.34;5222059;28;20743;-62
2021/06/03 06:32:24;;;;;;;5.40;5.00;;;21.00;94.00;;;22.67;48.62;98363.69;5220617;28;20194;-62
2021/06/03 06:34:57;;;;;;;5.65;5.25;;;21.00;94.00;;;22.76;48.78;98362.97;5221790;28;20204;-61
2021/06/03 06:37:29;;;;;;;5.63;5.22;;;21.10;93.90;;;22.90;48.31;98371.91;5219669;28;20193;-61
2021/06/03 06:40:03;;;;;;;5.70;5.20;;;21.20;94.00;;;23.02;48.32;98368.66;5220789;28;20193;-61
2021/06/03 06:42:36;;;;;;;5.80;5.40;;;21.30;93.90;;;23.19;47.54;98358.47;5217783;28;20217;-61
2021/06/03 06:45:11;;;;;;;5.63;5.13;;;21.50;93.40;;;23.31;47.65;98368.22;5224565;28;20223;-62
2021/06/03 06:47:45;;;;;;;5.57;5.18;;;21.60;93.30;;;23.52;47.11;98368.53;5226667;28;20232;-61
2021/06/03 06:50:18;;;;;;;5.07;4.68;;;21.90;93.00;;;23.57;47.18;98366.84;5220892;28;20204;-63
2021/06/03 06:52:52;;;;;;;5.45;5.05;;;22.00;93.00;;;23.71;47.16;98372.28;5218126;28;20200;-62
2021/06/03 06:55:25;;;;;;;5.20;4.90;;;22.00;93.00;;;23.90;46.76;98375.16;5219751;28;20228;-62
2021/06/03 06:57:59;;;;;;;5.40;4.90;;;22.20;93.00;;;23.96;46.82;98376.09;5234216;28;20217;-62
2021/06/03 07:00:34;;;;;;;4.68;4.38;;;22.30;92.90;;;24.03;46.71;98371.81;5216437;28;20200;-62
2021/06/03 07:03:10;;;;;;;4.85;4.55;;;22.30;93.10;;;24.03;47.54;98377.03;5221090;28;20212;-63
2021/06/03 07:05:45;;;;;;;5.10;4.70;;;22.30;93.70;;;23.97;47.59;98377.81;5216244;28;20204;-62
2021/06/03 07:08:18;;;;;;;4.05;3.75;;;22.20;93.50;;;24.17;47.05;98382.41;5221873;28;20660;-62
2021/06/03 07:10:53;;;;;;;4.80;4.40;;;22.40;93.40;;;24.04;47.13;98381.41;5224253;28;20603;-62
2021/06/03 07:13:25;;;;;;;4.28;3.97;;;22.30;93.10;;;24.02;47.62;98380.50;5223893;28;20571;-62
2021/06/03 07:15:58;;;;;;;4.43;4.13;;;22.20;93.60;;;24.07;47.46;98384.06;5221850;28;20839;-62
2021/06/03 07:18:32;;;;;;;4.40;4.07;;;22.20;93.70;;;24.06;48.14;98377.06;5219947;28;20217;-61
2021/06/03 07:21:05;;;;;;;4.25;3.95;;;22.30;94.10;;;24.17;47.78;98375.44;5219132;28;20317;-61
2021/06/03 07:23:37;;;;;;;4.60;4.20;;;22.40;94.20;;;24.17;48.33;98378.06;5217036;28;20221;-60
2021/06/03 07:26:10;;;;;;;3.88;3.67;;;22.50;94.10;;;24.17;48.98;98375.44;5215129;28;20205;-60
2021/06/03 07:28:42;;;;;;;4.32;3.92;;;22.50;94.80;;;24.41;47.31;98367.00;5214448;28;20709;-60
2021/06/03 07:31:15;;;;;;;4.10;3.90;;;22.60;93.40;;;24.36;47.31;98376.53;5222776;28;20193;-60
2021/06/03 07:33:49;;;;;;;4.82;3.53;;;22.60;93.60;;;24.55;47.69;98372.38;5219526;28;20212;-60
2021/06/03 07:36:22;;;;;;;3.97;3.67;;;22.70;94.10;;;24.61;47.96;98366.34;5219199;28;20189;-60
2021/06/03 07:38:55;;;;;;;4.03;3.63;;;22.80;94.00;;;24.60;47.26;98373.31;5224961;28;20221;-60
2021/06/03 07:41:28;;;;;;;3.90;3.60;;;22.80;93.70;;;24.69;46.82;98376.00;5215303;28;20189;-60
2021/06/03 07:44:00;;;;;;;4.07;3.63;;;22.90;93.10;;;24.80;47.33;98367.41;5218694;28;20236;-60
2021/06/03 07:46:34;;;;;;;4.00;3.72;;;23.00;93.60;;;24.99;46.99;98368.44;5213634;28;20193;-60
2021/06/03 07:49:11;;;;;;;3.97;3.67;;;23.20;93.10;;;25.35;45.52;98378.31;5222483;28;20773;-60
2021/06/03 07:51:44;;;;;;;3.50;3.22;;;23.60;92.20;;;25.71;44.87;98379.41;5218674;28;20637;-61
2021/06/03 07:54:16;;;;;;;3.60;3.30;;;24.00;91.70;;;26.02;43.98;98381.31;5211519;28;20201;-61
2021/06/03 07:56:49;;;;;;;3.80;3.45;;;24.40;91.10;;;26.30;43.17;98378.78;5212898;28;20201;-61
2021/06/03 07:59:22;;;;;;;3.88;3.53;;;24.30;90.90;;;26.08;44.28;98383.09;5218207;28;20230;-61
2021/06/03 08:01:54;;;;;;;3.80;3.45;;;24.20;91.70;;;25.86;44.51;98379.50;5217943;28;20568;-61
2021/06/03 08:04:28;;;;;;;4.10;3.80;;;24.10;91.80;;;25.95;44.60;98382.16;5215529;28;20204;-60
2021/06/03 08:07:00;;;;;;;3.47;3.25;;;24.00;91.80;;;26.13;44.68;98383.13;5221142;28;20203;-61
2021/06/03 08:09:34;;;;;;;4.03;3.63;;;24.20;91.90;;;26.30;43.68;98381.41;5222646;28;20711;-61
2021/06/03 08:12:08;;;;;;;3.85;3.55;;;24.40;91.20;;;26.29;44.04;98377.03;5220740;28;20296;-60
2021/06/03 08:14:40;;;;;;;3.63;3.30;;;24.30;91.50;;;26.36;44.48;98384.06;5211639;28;20286;-61
2021/06/03 08:17:13;;;;;;;3.97;3.67;;;24.50;91.90;;;26.70;44.22;98385.03;5214547;28;20196;-61
2021/06/03 08:19:47;;;;;;;4.00;3.70;;;24.90;91.60;;;26.98;43.78;98379.78;5221437;28;20223;-61
2021/06/03 08:22:20;;;;;;;3.65;3.45;;;25.10;91.50;;;27.21;42.99;98379.78;5221821;28;20220;-60
2021/06/03 08:24:52;;;;;;;4.20;3.45;;;25.40;90.70;;;27.49;42.42;98377.13;5217634;28;20199;-61
2021/06/03 08:27:25;;;;;;;3.90;3.60;;;25.60;90.40;;;27.75;41.44;98374.41;5222386;28;20200;-61
2021/06/03 08:29:57;;;;;;;3.80;3.60;;;25.80;90.00;;;27.96;41.34;98384.03;5214258;28;20193;-61
2021/06/03 08:32:30;;;;;;;3.50;3.30;;;26.00;89.30;;;28.02;41.11;98381.38;5215392;28;20196;-60
2021/06/03 08:35:05;;;;;;;4.10;3.72;;;26.10;89.50;;;28.18;41.25;98380.41;5223014;28;20203;-61
2021/06/03 08:37:37;;;;;;;3.63;3.33;;;26.30;88.80;;;28.14;41.21;98383.94;5221868;28;20224;-61
2021/06/03 08:40:13;;;;;;;4.03;3.55;;;26.40;88.20;;;28.25;40.86;98382.13;5222381;28;20207;-60
2021/06/03 08:42:46;;;;;;;3.85;3.55;;;26.30;88.20;;;28.28;41.15;98383.88;5220569;28;20218;-61
2021/06/03 08:45:20;;;;;;;3.65;3.35;;;26.10;89.90;;;28.15;41.12;98384.81;5221088;28;20588;-61
2021/06/03 08:47:54;;;;;;;3.78;3.10;;;26.30;88.90;;;28.30;40.92;98380.34;5214177;28;20581;-61
2021/06/03 08:50:32;;;;;;;3.40;3.10;;;26.30;88.60;;;28.40;40.50;98394.31;5222385;28;20188;-63
2021/06/03 08:53:05;;;;;;;3.22;3.03;;;26.60;87.70;;;28.24;41.23;98385.66;5220488;28;20204;-61
2021/06/03 08:58:30;;;;;;;3.20;2.90;;;26.60;86.70;;;28.08;40.23;98386.59;5214647;28;20252;-61
2021/06/03 09:01:05;;;;;;;3.22;3.00;;;26.00;87.60;;;28.00;40.99;98385.75;5216010;28;20216;-61
2021/06/03 09:03:39;;;;;;;3.00;2.80;;;25.80;88.70;;;27.97;41.10;98394.53;5223958;28;20223;-60
2021/06/03 09:06:15;;;;;;;3.22;3.03;;;25.80;89.50;;;27.85;41.51;98386.69;5218092;28;20215;-61
2021/06/03 09:08:52;;;;;;;2.90;2.70;;;25.80;89.10;;;27.61;42.12;98387.59;5217536;28;20221;-60
2021/06/03 09:11:25;;;;;;;4.88;3.05;;;25.60;89.90;;;27.61;42.07;98380.63;5222188;28;20201;-60
2021/06/03 09:14:03;;;;;;;3.15;2.95;;;25.80;89.80;;;27.51;41.75;98370.13;5222206;28;20209;-60
2021/06/03 09:16:38;;;;;;;3.30;3.00;;;25.60;88.70;;;27.53;42.36;98381.50;5216535;28;20197;-61
2021/06/03 09:19:14;;;;;;;3.20;3.00;;;25.60;89.90;;;27.51;42.33;98381.50;5210648;28;20213;-61
2021/06/03 09:21:50;;;;;;;3.67;3.38;;;25.80;89.50;;;27.77;41.41;98375.31;5221362;28;20207;-61
2021/06/03 09:24:25;;;;;;;3.30;3.00;;;25.80;88.70;;;27.62;41.89;98369.22;5224360;28;20213;-61
2021/06/03 09:27:01;;;;;;;3.95;3.40;;;25.70;89.10;;;27.67;41.52;98371.84;5216851;28;20263;-61
2021/06/03 09:29:36;;;;;;;3.17;2.92;;;25.60;88.90;;;27.66;42.07;98375.31;5220418;28;20224;-61
2021/06/03 09:32:11;;;;;;;3.47;2.72;;;25.60;89.70;;;27.56;42.21;98373.63;5206115;28;20236;-61
2021/06/03 09:34:55;;;;;;;3.30;3.00;;;25.60;89.70;;;27.52;42.00;98371.88;5216756;28;20195;-61
2021/06/03 09:37:35;;;;;;;2.85;2.65;;;25.70;89.60;;;27.63;41.83;98365.69;5218914;28;20197;-61
2021/06/03 09:40:20;;;;;;;3.10;2.90;;;25.60;89.30;;;27.61;41.35;98371.84;5206054;28;20201;-61
2021/06/03 09:43:05;;;;;;;3.20;2.83;;;25.50;88.90;;;27.51;41.59;98370.13;5224745;28;20231;-61
2021/06/03 09:45:54;;;;;;;3.05;2.80;;;25.60;88.70;;;27.54;42.36;98375.38;5217436;28;20211;-61
2021/06/03 09:48:38;;;;;;;3.03;2.83;;;25.50;90.00;;;27.50;42.52;98376.25;5209496;28;21539;-61
2021/06/03 09:51:24;;;;;;;2.75;2.63;;;25.60;90.10;;;27.53;41.71;98373.63;5213222;28;20228;-61
2021/06/03 09:54:01;;;;;;;3.15;2.70;;;25.50;89.10;;;27.48;41.98;98380.66;5226624;28;20193;-61
2021/06/03 09:56:36;;;;;;;3.38;2.97;;;25.50;89.50;;;27.52;41.26;98379.75;5220934;28;20196;-61
2021/06/03 09:59:16;;;;;;;3.00;2.80;;;25.60;89.30;;;27.53;41.13;98374.50;5226203;28;20216;-61
2021/06/03 10:01:52;;;;;;;2.95;2.70;;;25.60;87.40;;;27.71;40.97;98370.06;5219060;28;20193;-61
2021/06/03 10:04:35;;;;;;;3.28;2.97;;;25.60;88.10;;;28.01;41.77;98366.47;5206081;28;20225;-61
2021/06/03 10:07:20;;;;;;;3.20;2.90;;;26.10;88.40;;;27.99;40.22;98369.13;5205576;28;20197;-62
2021/06/03 10:10:00;;;;;;;2.95;2.75;;;26.40;85.40;;;28.33;39.12;98368.06;5219665;28;20704;-62
2021/06/03 10:12:45;;;;;;;2.97;2.78;;;26.90;83.10;;;28.47;39.51;98360.97;5222289;28;20200;-62
2021/06/03 10:15:45;;;;;;;3.30;2.80;;;27.20;83.40;;;28.28;40.88;98363.72;5223763;28;20203;-62
2021/06/03 10:18:24;;;;;;;3.33;2.92;;;27.00;86.10;;;28.44;40.00;98361.00;5215091;28;20299;-63
2021/06/03 10:20:57;;;;;;;2.70;2.50;;;27.20;83.30;;;28.26;39.58;98367.22;5212212;28;20197;-61
2021/06/03 10:23:30;;;;;;;3.05;2.75;;;27.20;83.20;;;28.48;38.39;98368.00;5224946;28;20262;-61
2021/06/03 10:26:06;;;;;;;8.23;7.40;;;27.30;81.10;;;28.54;39.06;98360.06;5212299;28;20672;-61
2021/06/03 10:28:39;;;;;;;3.45;3.15;;;27.50;81.60;;;28.46;39.41;98362.75;5207110;28;20221;-61
2021/06/03 10:31:12;;;;;;;2.80;2.60;;;27.50;82.60;;;28.51;39.51;98358.34;5203976;28;20202;-61
2021/06/03 10:33:45;;;;;;;2.72;2.53;;;27.50;82.40;;;28.65;39.05;98352.97;5217632;28;20204;-61
2021/06/03 10:36:18;;;;;;;3.65;2.80;;;27.60;81.70;;;28.56;38.17;98353.06;5207689;28;20237;-61
2021/06/03 10:38:50;;;;;;;3.10;2.80;;;27.50;81.00;;;28.41;39.01;98348.72;5218646;28;20739;-61
2021/06/03 10:41:24;;;;;;;3.03;2.80;;;27.20;82.00;;;27.92;39.60;98350.75;5219771;28;20580;-60
2021/06/03 10:43:58;;;;;;;2.60;2.40;;;26.80;82.30;;;27.67;40.38;98345.56;5222790;28;20212;-60
2021/06/03 10:46:30;;;;;;;3.35;2.58;;;26.60;82.70;;;27.78;40.58;98343.75;5216406;28;20836;-60
2021/06/03 10:49:03;;;;;;;2.50;2.30;;;26.70;83.60;;;27.79;39.17;98335.03;5212752;28;20659;-60
2021/06/03 10:55:35;;;;;;;2.65;2.45;;;26.60;83.70;;;27.75;41.24;98332.38;5179250;22;20232;-84
2021/06/03 10:58:12;;;;;;;2.65;2.45;;;26.90;84.60;;;27.88;41.15;98323.63;5222199;28;20200;-84